Time;durP1;ratioP1;P1;durP2;ratioP2;P2;SDS_P1;SDS_P2;PMS_P1;PMS_P2;Temp;Humidity;BMP_temperature;BMP_pressure;BME280_temperature;BME280_humidity;BME280_pressure;Samples;Min_cycle;Max_cycle;Signal;HPM_P1;HPM_P2
2022/08/13 00:01:56;;;;;;;3.35;1.63;;;20.60;99.90;;;;;;4979880;28;20079;-57
2022/08/13 00:04:23;;;;;;;6.25;1.70;;;20.60;99.90;;;;;;4980524;28;20389;-57
2022/08/13 00:07:04;;;;;;;3.67;1.65;;;20.50;99.90;;;;;;4998520;28;20066;-57
2022/08/13 00:09:31;;;;;;;6.35;1.63;;;20.30;99.90;;;;;;4984958;28;20573;-56
2022/08/13 00:14:41;;;;;;;4.50;1.75;;;20.50;99.90;;;;;;4979071;28;20081;-56
2022/08/13 00:17:13;;;;;;;4.60;1.90;;;20.70;99.90;;;;;;4983464;28;20133;-57
2022/08/13 00:19:43;;;;;;;2.65;1.75;;;20.60;99.90;;;;;;4984299;28;20035;-56
2022/08/13 00:22:10;;;;;;;3.55;1.80;;;20.50;99.90;;;;;;4987045;28;20382;-57
2022/08/13 00:24:38;;;;;;;3.28;1.80;;;20.30;99.90;;;;;;4983800;28;20026;-55
2022/08/13 00:27:04;;;;;;;4.55;1.80;;;20.40;99.90;;;;;;4985277;28;20023;-57
2022/08/13 00:29:30;;;;;;;4.38;1.65;;;20.30;99.90;;;;;;4998947;28;20043;-57
2022/08/13 00:31:56;;;;;;;5.25;1.50;;;20.10;99.90;;;;;;4987977;28;20022;-56
2022/08/13 00:34:22;;;;;;;4.57;1.80;;;20.20;99.90;;;;;;4984005;28;20484;-55
2022/08/13 00:36:48;;;;;;;5.05;1.80;;;;;;;;;;4984079;28;20405;-57
2022/08/13 00:39:13;;;;;;;3.88;1.65;;;19.80;99.90;;;;;;4982478;28;20022;-56
2022/08/13 00:41:45;;;;;;;3.38;1.85;;;20.10;99.90;;;;;;4988049;28;20038;-56
2022/08/13 00:44:14;;;;;;;2.58;1.88;;;20.10;99.90;;;;;;4988626;28;20045;-56
2022/08/13 00:46:41;;;;;;;1.98;1.45;;;;;;;;;;4985832;28;20104;-57
2022/08/13 00:49:09;;;;;;;5.88;1.60;;;19.70;99.90;;;;;;4982745;28;20034;-56
2022/08/13 00:51:38;;;;;;;2.72;1.50;;;;;;;;;;4984136;28;20243;-56
2022/08/13 00:54:11;;;;;;;5.00;1.55;;;19.80;99.90;;;;;;4985304;28;20022;-56
2022/08/13 00:56:37;;;;;;;4.63;1.52;;;19.80;99.90;;;;;;4982742;28;20826;-56
2022/08/13 00:59:12;;;;;;;4.93;1.52;;;19.80;99.90;;;;;;4983799;28;20089;-54
2022/08/13 01:01:39;;;;;;;2.45;1.73;;;19.80;99.90;;;;;;4976799;28;20393;-56
2022/08/13 01:04:07;;;;;;;3.85;1.67;;;19.80;99.90;;;;;;4981610;28;20022;-56
2022/08/13 01:06:33;;;;;;;4.13;1.77;;;19.80;99.90;;;;;;4980375;28;20034;-56
2022/08/13 01:08:59;;;;;;;4.22;1.80;;;19.70;99.90;;;;;;4993773;28;20728;-57
2022/08/13 01:11:27;;;;;;;5.55;2.00;;;19.80;99.90;;;;;;4982153;28;20148;-57
2022/08/13 01:13:52;;;;;;;4.10;1.85;;;19.70;99.90;;;;;;4990787;28;20026;-56
2022/08/13 01:16:21;;;;;;;4.45;1.90;;;19.50;99.90;;;;;;5000099;28;20034;-57
2022/08/13 01:18:50;;;;;;;4.65;1.58;;;19.40;99.90;;;;;;4986116;28;20049;-56
2022/08/13 01:21:18;;;;;;;2.58;1.70;;;19.70;99.90;;;;;;4993359;28;20038;-56
2022/08/13 01:23:46;;;;;;;4.93;1.90;;;19.80;99.90;;;;;;4988133;28;20084;-56
2022/08/13 01:26:20;;;;;;;5.00;2.10;;;20.40;99.90;;;;;;4987132;28;20045;-56
2022/08/13 01:28:51;;;;;;;6.65;2.10;;;19.90;99.90;;;;;;4987360;28;20064;-56
2022/08/13 01:31:18;;;;;;;3.00;2.00;;;;;;;;;;4993561;28;20186;-56
2022/08/13 01:33:46;;;;;;;2.88;2.30;;;;;;;;;;4988086;28;20033;-57
2022/08/13 01:36:15;;;;;;;4.50;2.00;;;;;;;;;;4986691;28;20062;-57
2022/08/13 01:38:42;;;;;;;9.43;2.00;;;18.80;99.90;;;;;;4986169;28;20503;-55
2022/08/13 01:41:09;;;;;;;3.50;2.00;;;19.20;99.90;;;;;;4992499;28;20436;-56
2022/08/13 01:43:39;;;;;;;3.63;1.92;;;;;;;;;;4986965;28;20039;-56
2022/08/13 01:46:07;;;;;;;4.28;2.08;;;18.70;99.90;;;;;;4987737;28;20030;-56
2022/08/13 01:51:29;;;;;;;3.35;2.15;;;19.00;99.90;;;;;;4990408;28;20036;-56
2022/08/13 01:54:00;;;;;;;3.92;1.90;;;;;;;;;;4991967;28;20261;-56
2022/08/13 01:56:31;;;;;;;4.93;2.10;;;;;;;;;;4985978;28;20677;-56
2022/08/13 01:58:59;;;;;;;3.25;2.22;;;18.90;99.90;;;;;;4988428;28;20038;-56
2022/08/13 02:01:26;;;;;;;4.93;2.40;;;19.00;99.90;;;;;;4984445;28;20022;-56
2022/08/13 02:03:53;;;;;;;5.47;2.00;;;18.80;99.90;;;;;;4981971;28;20452;-56
2022/08/13 02:06:28;;;;;;;5.10;2.13;;;18.80;99.90;;;;;;4989270;28;20032;-55
2022/08/13 02:08:58;;;;;;;6.30;2.13;;;18.70;99.90;;;;;;4987806;28;20034;-55
2022/08/13 02:11:27;;;;;;;4.00;2.25;;;18.40;99.90;;;;;;4984396;28;20018;-56
2022/08/13 02:13:56;;;;;;;3.42;2.20;;;;;;;;;;4984894;28;20033;-56
2022/08/13 02:16:23;;;;;;;3.97;2.30;;;;;;;;;;5001198;28;20022;-55
2022/08/13 02:18:53;;;;;;;3.88;2.78;;;;;;;;;;4990800;28;20510;-56
2022/08/13 02:21:22;;;;;;;6.95;2.28;;;;;;;;;;4988952;28;20030;-56
2022/08/13 02:23:59;;;;;;;4.85;2.50;;;;;;;;;;4985661;28;20548;-56
2022/08/13 02:26:29;;;;;;;5.40;2.60;;;;;;;;;;4982645;28;20034;-55
2022/08/13 02:29:03;;;;;;;5.15;2.83;;;;;;;;;;4988151;28;20057;-56
2022/08/13 02:31:32;;;;;;;6.00;2.55;;;18.00;99.90;;;;;;5001391;28;20087;-56
2022/08/13 02:33:59;;;;;;;5.93;2.72;;;;;;;;;;4985299;28;20042;-56
2022/08/13 02:36:27;;;;;;;5.93;2.70;;;;;;;;;;4988207;28;20022;-56
2022/08/13 02:39:05;;;;;;;6.13;2.83;;;;;;;;;;4991883;28;20381;-56
2022/08/13 02:41:38;;;;;;;4.13;2.53;;;;;;;;;;4985317;28;20057;-56
2022/08/13 02:44:10;;;;;;;4.80;2.50;;;;;;;;;;4992779;28;20032;-56
2022/08/13 02:46:49;;;;;;;4.30;2.47;;;;;;;;;;4984297;28;20034;-56
2022/08/13 02:49:21;;;;;;;3.55;2.60;;;;;;;;;;4984859;28;20042;-55
2022/08/13 02:51:50;;;;;;;3.20;2.55;;;;;;;;;;4987283;28;20030;-56
2022/08/13 02:54:20;;;;;;;6.18;2.53;;;;;;;;;;4987649;28;20045;-56
2022/08/13 02:56:48;;;;;;;7.60;2.50;;;;;;;;;;5000537;28;20608;-55
2022/08/13 02:59:15;;;;;;;4.45;2.30;;;;;;;;;;4982902;28;20523;-55
2022/08/13 03:01:42;;;;;;;8.23;2.75;;;;;;;;;;4986421;28;20073;-55
2022/08/13 03:04:09;;;;;;;3.85;2.47;;;;;;;;;;4986383;28;20042;-56
2022/08/13 03:06:37;;;;;;;4.20;2.60;;;;;;;;;;4980959;28;20037;-55
2022/08/13 03:09:04;;;;;;;5.15;2.65;;;17.80;99.90;;;;;;4987888;28;20381;-56
2022/08/13 03:11:31;;;;;;;4.25;2.83;;;17.90;99.90;;;;;;4987928;28;20042;-55
2022/08/13 03:14:05;;;;;;;5.93;2.80;;;18.00;99.90;;;;;;4983347;28;20014;-56
2022/08/13 03:16:34;;;;;;;5.55;2.63;;;17.80;99.90;;;;;;4985633;28;20026;-55
2022/08/13 03:19:01;;;;;;;6.40;2.72;;;17.80;99.90;;;;;;4978000;28;20058;-55
2022/08/13 03:21:36;;;;;;;4.93;2.83;;;17.80;99.90;;;;;;4988883;28;20108;-55
2022/08/13 03:24:04;;;;;;;5.57;2.97;;;17.80;99.90;;;;;;4982878;28;20021;-55
2022/08/13 03:26:32;;;;;;;3.58;2.67;;;;;;;;;;4982529;28;20473;-56
2022/08/13 03:28:59;;;;;;;4.88;2.83;;;17.50;99.90;;;;;;4985433;28;20058;-55
2022/08/13 03:31:27;;;;;;;5.32;3.08;;;17.60;99.90;;;;;;4987548;28;20018;-54
2022/08/13 03:33:53;;;;;;;5.88;2.97;;;17.60;99.90;;;;;;4985285;28;20034;-55
2022/08/13 03:36:20;;;;;;;6.07;3.08;;;17.70;99.90;;;;;;4982278;28;20014;-55
2022/08/13 03:38:48;;;;;;;4.85;2.92;;;;;;;;;;4984486;28;20405;-55
2022/08/13 03:41:15;;;;;;;6.85;2.83;;;;;;;;;;4984916;28;20088;-55
2022/08/13 03:43:42;;;;;;;8.45;3.13;;;;;;;;;;4982996;28;20684;-56
2022/08/13 03:46:32;;;;;;;5.50;2.90;;;;;;;;;;4987863;28;20022;-56
2022/08/13 03:48:59;;;;;;;3.95;3.00;;;;;;;;;;4985457;28;20053;-55
2022/08/13 03:51:26;;;;;;;4.57;2.90;;;;;;;;;;4986163;28;20026;-56
2022/08/13 03:53:54;;;;;;;7.22;3.25;;;;;;;;;;4983446;28;20103;-54
2022/08/13 03:56:22;;;;;;;5.60;2.92;;;;;;;;;;4981672;28;20034;-55
2022/08/13 03:58:55;;;;;;;5.20;2.90;;;;;;;;;;4984603;28;20022;-55
2022/08/13 04:01:25;;;;;;;5.28;3.13;;;;;;;;;;4981717;28;20018;-55
2022/08/13 04:03:54;;;;;;;3.97;2.83;;;;;;;;;;5000380;28;20516;-54
2022/08/13 04:06:23;;;;;;;5.63;2.92;;;;;;;;;;4999637;28;20613;-54
2022/08/13 04:08:50;;;;;;;7.35;3.15;;;17.40;99.90;;;;;;4979923;28;20386;-56
2022/08/13 04:11:22;;;;;;;4.60;3.03;;;17.30;99.90;;;;;;4977657;28;20026;-56
2022/08/13 04:13:48;;;;;;;4.25;3.00;;;17.40;99.90;;;;;;4980290;28;20125;-56
2022/08/13 04:16:23;;;;;;;3.83;2.60;;;17.40;99.90;;;;;;4985642;28;20026;-55
2022/08/13 04:18:50;;;;;;;4.90;2.95;;;17.30;99.90;;;;;;4986548;28;20489;-54
2022/08/13 04:21:18;;;;;;;6.88;2.72;;;17.30;99.90;;;;;;4983478;28;20625;-55
2022/08/13 04:23:48;;;;;;;4.78;3.00;;;17.20;99.90;;;;;;4981082;28;20215;-56
2022/08/13 04:26:15;;;;;;;3.83;2.95;;;17.20;99.90;;;;;;4970423;28;20031;-55
2022/08/13 04:28:43;;;;;;;6.70;3.30;;;17.10;99.90;;;;;;4985722;28;20065;-55
2022/08/13 04:31:10;;;;;;;5.13;3.00;;;17.30;99.90;;;;;;4983740;28;21371;-55
2022/08/13 04:33:37;;;;;;;6.97;3.10;;;17.20;99.90;;;;;;4940115;28;1187719;-55
2022/08/13 04:36:03;;;;;;;5.15;2.80;;;17.10;99.90;;;;;;4982015;28;20030;-55
2022/08/13 04:38:29;;;;;;;4.88;2.95;;;17.00;99.90;;;;;;4985518;28;20460;-55
2022/08/13 04:40:56;;;;;;;7.43;3.15;;;17.10;99.90;;;;;;4985709;28;20026;-56
2022/08/13 04:43:22;;;;;;;6.85;3.13;;;17.00;99.90;;;;;;4991606;28;20062;-55
2022/08/13 04:45:50;;;;;;;5.50;3.17;;;17.10;99.90;;;;;;4987369;28;20033;-54
2022/08/13 04:48:17;;;;;;;4.80;3.33;;;17.10;99.90;;;;;;4993246;28;20050;-55
2022/08/13 04:50:46;;;;;;;6.00;3.03;;;17.00;99.90;;;;;;4988559;28;20372;-55
2022/08/13 04:53:31;;;;;;;5.50;3.00;;;17.10;99.90;;;;;;4988240;28;20022;-55
2022/08/13 04:55:59;;;;;;;6.78;3.40;;;17.00;99.90;;;;;;4986027;28;20031;-55
2022/08/13 04:58:32;;;;;;;4.68;2.92;;;17.30;99.90;;;;;;4988112;28;20072;-55
2022/08/13 05:00:59;;;;;;;6.03;3.00;;;17.20;99.90;;;;;;4986636;28;20088;-55
2022/08/13 05:03:25;;;;;;;4.35;2.90;;;17.10;99.90;;;;;;4983023;28;20089;-55
2022/08/13 05:05:54;;;;;;;5.03;3.13;;;17.10;99.90;;;;;;4984321;28;20039;-55
2022/08/13 05:08:20;;;;;;;5.35;3.10;;;17.10;99.90;;;;;;4989780;28;20038;-55
2022/08/13 05:10:50;;;;;;;5.22;3.30;;;17.30;99.90;;;;;;4988884;28;20039;-55
2022/08/13 05:13:24;;;;;;;7.18;3.63;;;17.30;99.90;;;;;;4989947;28;20580;-56
2022/08/13 05:15:51;;;;;;;5.38;3.50;;;17.30;99.90;;;;;;4988488;28;20038;-54
2022/08/13 05:18:18;;;;;;;8.55;3.63;;;17.30;99.90;;;;;;4987833;28;20054;-55
2022/08/13 05:20:44;;;;;;;5.60;3.47;;;17.20;99.90;;;;;;4970612;28;20042;-55
2022/08/13 05:23:12;;;;;;;5.03;3.30;;;17.40;99.90;;;;;;4989531;28;20524;-54
2022/08/13 05:25:38;;;;;;;4.60;3.28;;;17.40;99.90;;;;;;4988009;28;20034;-55
2022/08/13 05:28:04;;;;;;;7.57;3.60;;;17.50;99.90;;;;;;4994055;28;20045;-56
2022/08/13 05:30:32;;;;;;;5.80;3.58;;;17.60;99.90;;;;;;4989490;28;20037;-55
2022/08/13 05:32:58;;;;;;;8.63;3.70;;;17.40;99.90;;;;;;4989995;28;20022;-55
2022/08/13 05:35:28;;;;;;;4.68;3.25;;;17.50;99.90;;;;;;4987948;28;20037;-55
2022/08/13 05:37:56;;;;;;;6.05;2.90;;;18.30;99.90;;;;;;5002169;28;20019;-55
2022/08/13 05:40:26;;;;;;;8.15;2.78;;;;;;;;;;4990804;28;20026;-55
2022/08/13 05:42:56;;;;;;;4.95;2.67;;;;;;;;;;4987492;28;20145;-55
2022/08/13 05:45:25;;;;;;;8.07;3.00;;;;;;;;;;4984776;28;20030;-55
2022/08/13 05:47:57;;;;;;;8.50;2.72;;;;;;;;;;4984914;28;20393;-55
2022/08/13 05:50:25;;;;;;;5.43;2.80;;;;;;;;;;4987903;28;20082;-55
2022/08/13 05:52:52;;;;;;;6.10;2.78;;;;;;;;;;4986418;28;20136;-57
2022/08/13 05:55:20;;;;;;;4.15;2.65;;;;;;;;;;4988502;28;20026;-56
2022/08/13 05:57:46;;;;;;;4.32;2.67;;;19.10;99.90;;;;;;4986201;28;20018;-56
2022/08/13 06:05:46;;;;;;;6.10;3.00;;;;;;;;;;4983750;28;20038;-54
2022/08/13 06:08:15;;;;;;;4.10;2.58;;;19.00;99.90;;;;;;4986120;28;20229;-56
2022/08/13 06:10:43;;;;;;;5.70;2.65;;;19.90;99.90;;;;;;4988059;28;20057;-55
2022/08/13 06:13:14;;;;;;;5.90;2.53;;;20.10;99.90;;;;;;4986683;28;20707;-56
2022/08/13 06:15:42;;;;;;;6.53;2.78;;;20.20;99.90;;;;;;4988063;28;20258;-56
2022/08/13 06:18:12;;;;;;;5.85;2.58;;;20.50;99.90;;;;;;4984009;28;20041;-56
2022/08/13 06:20:41;;;;;;;7.40;2.80;;;20.40;99.90;;;;;;4969045;28;20558;-56
2022/08/13 06:23:11;;;;;;;6.40;3.10;;;;;;;;;;4986998;28;20030;-55
2022/08/13 06:25:37;;;;;;;9.20;2.83;;;20.60;99.90;;;;;;4984445;28;20030;-55
2022/08/13 06:28:10;;;;;;;6.35;2.90;;;21.00;99.90;;;;;;4985018;28;20041;-56
2022/08/13 06:30:39;;;;;;;5.03;3.05;;;20.80;99.90;;;;;;4985379;28;20121;-56
2022/08/13 06:33:07;;;;;;;7.22;2.80;;;20.90;99.90;;;;;;4972734;28;20121;-56
2022/08/13 06:35:34;;;;;;;9.13;2.80;;;21.00;99.90;;;;;;4990570;28;20034;-57
2022/08/13 06:38:06;;;;;;;5.55;2.78;;;21.10;99.90;;;;;;4985920;28;20172;-56
2022/08/13 06:40:35;;;;;;;6.15;2.90;;;21.20;99.90;;;;;;4973291;28;20030;-56
2022/08/13 06:43:02;;;;;;;6.65;2.60;;;21.30;99.90;;;;;;4987895;28;20037;-56
2022/08/13 06:45:29;;;;;;;6.00;2.53;;;21.50;99.90;;;;;;4984803;28;20116;-57
2022/08/13 06:47:57;;;;;;;7.72;2.35;;;21.60;99.90;;;;;;4966707;28;20026;-57
2022/08/13 06:50:23;;;;;;;6.25;2.20;;;21.60;99.90;;;;;;4982746;28;20034;-55
2022/08/13 06:52:49;;;;;;;8.02;2.50;;;21.70;99.90;;;;;;4982987;28;20033;-56
2022/08/13 06:55:17;;;;;;;5.05;2.33;;;21.80;99.90;;;;;;4986312;28;20024;-56
2022/08/13 06:57:45;;;;;;;6.72;2.35;;;21.90;99.90;;;;;;4985193;28;20026;-56
2022/08/13 07:00:11;;;;;;;4.35;1.95;;;22.00;99.90;;;;;;4984894;28;20034;-57
2022/08/13 07:02:42;;;;;;;6.50;2.10;;;22.10;99.90;;;;;;5000899;28;20117;-57
2022/08/13 07:05:08;;;;;;;5.28;2.10;;;;;;;;;;4981911;28;20397;-57
2022/08/13 07:07:44;;;;;;;6.00;1.95;;;22.40;99.90;;;;;;4991268;28;20471;-57
2022/08/13 07:10:14;;;;;;;6.00;1.95;;;22.40;99.90;;;;;;4982597;28;20567;-55
2022/08/13 07:12:41;;;;;;;4.35;1.90;;;22.50;99.90;;;;;;4986545;28;20066;-56
2022/08/13 07:15:16;;;;;;;4.20;1.80;;;22.70;99.90;;;;;;4987134;28;20053;-56
2022/08/13 07:17:45;;;;;;;5.75;2.15;;;22.70;99.90;;;;;;4989270;28;20061;-57
2022/08/13 07:20:14;;;;;;;8.68;2.05;;;22.80;99.90;;;;;;4982655;28;20543;-57
2022/08/13 07:22:41;;;;;;;6.85;2.05;;;22.90;99.90;;;;;;4985517;28;20640;-57
2022/08/13 07:25:09;;;;;;;9.48;2.03;;;22.90;99.90;;;;;;4987974;28;20066;-56
2022/08/13 07:27:41;;;;;;;6.30;2.22;;;23.10;99.90;;;;;;4986750;28;20102;-56
2022/08/13 07:30:08;;;;;;;4.80;2.42;;;23.20;99.90;;;;;;4983512;28;20074;-57
2022/08/13 07:32:38;;;;;;;6.88;2.10;;;23.30;99.90;;;;;;5000366;28;20488;-57
2022/08/13 07:35:04;;;;;;;3.50;1.85;;;23.30;99.90;;;;;;4984033;28;20390;-56
2022/08/13 07:37:30;;;;;;;5.10;2.00;;;23.40;99.90;;;;;;4985377;28;20033;-57
2022/08/13 07:39:56;;;;;;;4.60;1.90;;;23.50;99.90;;;;;;4984534;28;20030;-57
2022/08/13 07:42:23;;;;;;;4.57;2.00;;;23.60;99.90;;;;;;4987309;28;20131;-56
2022/08/13 07:44:52;;;;;;;4.22;2.30;;;23.70;99.90;;;;;;4985160;28;20125;-58
2022/08/13 07:47:23;;;;;;;85.43;76.03;;;23.80;99.90;;;;;;4983313;28;20369;-55
2022/08/13 07:49:50;;;;;;;12.20;7.50;;;23.80;99.90;;;;;;4981876;28;20030;-57
2022/08/13 07:52:16;;;;;;;5.72;2.13;;;23.80;99.90;;;;;;4985533;28;20030;-57
2022/08/13 07:54:43;;;;;;;3.58;1.77;;;23.90;99.90;;;;;;4984876;28;20025;-57
2022/08/13 07:57:09;;;;;;;4.75;2.20;;;24.00;99.90;;;;;;4984490;28;20470;-58
2022/08/13 07:59:36;;;;;;;5.15;1.65;;;24.10;99.90;;;;;;4981733;28;20423;-57
2022/08/13 08:02:05;;;;;;;4.57;2.20;;;24.10;99.90;;;;;;4982217;28;20026;-57
2022/08/13 08:04:34;;;;;;;5.93;2.05;;;24.20;99.90;;;;;;4981257;28;20045;-57
2022/08/13 08:07:01;;;;;;;8.82;2.08;;;24.30;99.90;;;;;;4983481;28;20022;-57
2022/08/13 08:09:29;;;;;;;3.92;1.88;;;24.40;99.90;;;;;;4983784;28;20034;-57
2022/08/13 08:14:42;;;;;;;6.65;2.15;;;24.40;99.90;;;;;;4996341;28;20429;-58
2022/08/13 08:17:11;;;;;;;2.67;2.05;;;24.50;99.90;;;;;;4982135;28;20322;-58
2022/08/13 08:19:44;;;;;;;5.80;2.20;;;24.70;99.90;;;;;;4977659;28;20142;-59
2022/08/13 08:22:11;;;;;;;5.38;2.03;;;24.70;99.90;;;;;;4987082;28;20092;-58
2022/08/13 08:24:37;;;;;;;4.50;2.10;;;24.80;99.90;;;;;;4982276;28;20023;-59
2022/08/13 08:27:05;;;;;;;3.35;1.95;;;24.80;99.90;;;;;;4977336;28;20521;-59
2022/08/13 08:29:33;;;;;;;5.60;1.90;;;24.80;99.90;;;;;;4977484;28;20026;-59
2022/08/13 08:31:59;;;;;;;6.28;2.10;;;25.00;99.90;;;;;;4980343;28;20125;-58
2022/08/13 08:34:26;;;;;;;5.60;2.00;;;25.10;99.90;;;;;;4979884;28;20034;-59
2022/08/13 08:36:56;;;;;;;7.35;2.78;;;25.20;99.90;;;;;;4981599;28;20027;-59
2022/08/13 08:44:41;;;;;;;4.68;1.63;;;25.50;99.90;;;;;;4984159;28;20023;-58
2022/08/13 08:47:07;;;;;;;5.47;1.52;;;25.60;99.90;;;;;;4974874;28;20031;-58
2022/08/13 08:49:34;;;;;;;2.75;1.60;;;25.70;99.90;;;;;;4979945;28;20544;-59
2022/08/13 08:52:01;;;;;;;2.42;1.48;;;25.70;99.90;;;;;;4979771;28;20015;-59
2022/08/13 08:54:29;;;;;;;2.92;1.45;;;25.80;99.90;;;;;;4984159;28;20460;-59
2022/08/13 08:56:57;;;;;;;5.50;1.35;;;25.70;99.90;;;;;;4984243;28;20101;-58
2022/08/13 08:59:25;;;;;;;6.30;1.40;;;25.80;99.90;;;;;;4983993;28;20444;-59
2022/08/13 09:01:52;;;;;;;5.68;1.45;;;25.80;99.90;;;;;;4983957;28;20038;-59
2022/08/13 09:04:32;;;;;;;2.00;1.33;;;26.00;99.90;;;;;;4980852;28;20364;-59
2022/08/13 09:06:58;;;;;;;4.68;1.40;;;26.10;99.90;;;;;;4980148;28;20025;-59
2022/08/13 09:09:25;;;;;;;1.92;1.33;;;26.30;99.90;;;;;;4984921;28;20026;-59
2022/08/13 09:11:55;;;;;;;3.00;1.30;;;26.20;99.90;;;;;;4980047;28;20030;-59
2022/08/13 09:14:31;;;;;;;5.78;1.33;;;26.40;99.90;;;;;;4985642;28;20420;-59
2022/08/13 09:17:02;;;;;;;2.25;1.13;;;26.40;99.90;;;;;;4981329;28;20019;-59
2022/08/13 09:19:28;;;;;;;3.35;1.30;;;26.50;99.90;;;;;;4982438;28;20027;-58
2022/08/13 09:21:58;;;;;;;4.68;1.50;;;26.60;99.90;;;;;;4978535;28;20377;-58
2022/08/13 09:24:25;;;;;;;10.70;8.63;;;26.60;99.90;;;;;;4981867;28;20062;-58
2022/08/13 09:26:51;;;;;;;3.05;1.20;;;26.70;99.90;;;;;;4979855;28;20641;-56
2022/08/13 09:29:20;;;;;;;2.03;1.30;;;26.70;99.90;;;;;;4985546;28;20038;-59
2022/08/13 09:31:48;;;;;;;2.42;1.38;;;26.80;99.90;;;;;;4985625;28;20038;-58
2022/08/13 09:34:15;;;;;;;6.13;1.35;;;26.90;99.90;;;;;;4988128;28;20149;-58
2022/08/13 09:36:41;;;;;;;3.78;1.20;;;27.00;99.90;;;;;;4987862;28;20412;-59
2022/08/13 09:39:08;;;;;;;3.08;1.30;;;26.90;99.90;;;;;;4982852;28;20030;-58
2022/08/13 09:41:41;;;;;;;3.22;1.27;;;26.90;99.90;;;;;;4983453;28;20053;-58
2022/08/13 09:44:06;;;;;;;3.43;1.20;;;27.10;99.90;;;;;;4987949;28;20053;-59
2022/08/13 09:46:35;;;;;;;1.40;1.30;;;27.00;99.90;;;;;;4989407;28;20476;-59
2022/08/13 09:49:03;;;;;;;4.22;1.27;;;27.10;99.90;;;;;;4986201;28;20405;-59
2022/08/13 09:51:35;;;;;;;6.45;1.42;;;27.00;99.90;;;;;;4986641;28;20038;-59
2022/08/13 09:54:05;;;;;;;4.93;1.20;;;27.10;99.90;;;;;;4989068;28;20523;-59
2022/08/13 09:56:37;;;;;;;2.45;1.10;;;27.30;99.90;;;;;;4979594;28;20053;-60
2022/08/13 09:59:06;;;;;;;1.40;1.15;;;27.30;99.90;;;;;;4985357;28;20081;-59
2022/08/13 10:01:34;;;;;;;2.20;1.30;;;27.30;99.90;;;;;;4988331;28;20493;-60
2022/08/13 10:03:59;;;;;;;2.63;1.73;;;27.40;99.90;;;;;;4984964;28;20041;-60
2022/08/13 10:06:28;;;;;;;4.80;2.10;;;27.50;99.90;;;;;;4984987;28;20042;-60
2022/08/13 10:08:54;;;;;;;3.72;2.00;;;27.50;99.90;;;;;;4989219;28;20026;-59
2022/08/13 10:11:22;;;;;;;2.63;1.55;;;27.60;99.90;;;;;;4987942;28;20493;-60
2022/08/13 10:13:48;;;;;;;2.95;1.60;;;27.50;99.90;;;;;;4990530;28;20033;-59
2022/08/13 10:16:14;;;;;;;3.53;1.88;;;27.60;99.90;;;;;;4986904;28;20480;-59
2022/08/13 10:18:41;;;;;;;7.53;1.95;;;27.60;99.90;;;;;;4986321;28;20034;-59
2022/08/13 10:21:08;;;;;;;2.72;1.80;;;27.60;99.90;;;;;;4986559;28;20470;-59
2022/08/13 10:23:33;;;;;;;3.08;1.80;;;27.60;99.90;;;;;;4985079;28;20145;-60
2022/08/13 10:26:00;;;;;;;3.63;1.42;;;27.70;99.90;;;;;;4987844;28;20141;-59
2022/08/13 10:28:31;;;;;;;5.57;2.10;;;27.80;99.90;;;;;;4985408;28;20794;-59
2022/08/13 10:31:02;;;;;;;2.63;2.00;;;28.00;99.90;;;;;;4981368;28;20523;-60
2022/08/13 10:33:28;;;;;;;5.05;1.60;;;27.80;99.90;;;;;;4988901;28;20037;-58
2022/08/13 10:35:55;;;;;;;3.40;1.45;;;27.80;99.90;;;;;;4985208;28;20027;-60
2022/08/13 10:38:26;;;;;;;4.68;1.75;;;27.60;99.90;;;;;;4986482;28;20133;-60
2022/08/13 10:41:07;;;;;;;3.30;1.40;;;27.70;99.90;;;;;;4987313;28;20034;-60
2022/08/13 10:43:38;;;;;;;4.57;1.63;;;28.10;99.90;;;;;;4984780;28;20076;-60
2022/08/13 10:46:04;;;;;;;2.33;1.40;;;28.10;99.90;;;;;;4984812;28;20860;-59
2022/08/13 10:48:30;;;;;;;1.65;1.50;;;27.90;99.90;;;;;;4984184;28;20049;-59
2022/08/13 10:50:56;;;;;;;3.88;1.70;;;27.90;99.90;;;;;;4989683;28;20022;-59
2022/08/13 10:56:11;;;;;;;5.45;1.67;;;28.00;99.90;;;;;;4984790;28;20085;-59
2022/08/13 10:58:40;;;;;;;3.25;1.60;;;28.00;99.90;;;;;;4980643;28;20080;-59
2022/08/13 11:01:06;;;;;;;8.27;2.10;;;28.00;99.90;;;;;;4984247;28;20034;-59
2022/08/13 11:03:33;;;;;;;2.78;1.70;;;28.10;99.90;;;;;;4987312;28;20026;-59
2022/08/13 11:06:03;;;;;;;5.78;1.75;;;28.10;99.90;;;;;;4983136;28;20101;-60
2022/08/13 11:08:35;;;;;;;5.22;1.67;;;28.10;99.90;;;;;;4986527;28;20038;-59
2022/08/13 11:11:01;;;;;;;3.45;1.45;;;28.00;99.90;;;;;;4982094;28;20500;-60
2022/08/13 11:13:26;;;;;;;6.63;1.50;;;27.90;99.90;;;;;;4984594;28;20125;-60
2022/08/13 11:15:52;;;;;;;3.92;1.58;;;28.10;99.90;;;;;;4985823;28;20428;-59
2022/08/13 11:18:20;;;;;;;4.60;1.70;;;28.10;99.90;;;;;;4988570;28;20038;-60
2022/08/13 11:23:30;;;;;;;4.50;1.88;;;28.20;99.90;;;;;;4985831;28;20116;-60
2022/08/13 11:25:56;;;;;;;3.55;1.70;;;28.10;99.90;;;;;;4981265;28;20422;-60
2022/08/13 11:28:22;;;;;;;1.45;1.35;;;28.30;99.90;;;;;;4984203;28;20035;-59
2022/08/13 11:30:49;;;;;;;4.63;1.30;;;28.30;98.60;;;;;;4992634;28;20043;-60
2022/08/13 11:33:15;;;;;;;7.38;1.90;;;28.30;99.90;;;;;;4986061;28;20057;-60
2022/08/13 11:35:42;;;;;;;2.50;1.55;;;28.30;99.90;;;;;;4985584;28;20614;-60
2022/08/13 11:38:09;;;;;;;4.72;1.67;;;28.40;99.80;;;;;;4985041;28;20041;-60
2022/08/13 11:40:35;;;;;;;6.10;1.67;;;28.30;98.80;;;;;;4987005;28;20486;-60
2022/08/13 11:43:01;;;;;;;3.85;1.80;;;28.40;99.10;;;;;;4982513;28;20479;-60
2022/08/13 11:45:27;;;;;;;4.53;1.95;;;28.20;99.60;;;;;;4984934;28;20042;-59
2022/08/13 11:47:52;;;;;;;4.68;1.92;;;28.30;99.30;;;;;;4987522;28;20038;-59
2022/08/13 11:50:21;;;;;;;4.03;1.58;;;28.40;97.50;;;;;;4984827;28;20068;-59
2022/08/13 11:52:46;;;;;;;6.40;1.75;;;28.20;97.10;;;;;;4988207;28;20045;-60
2022/08/13 11:55:12;;;;;;;3.45;1.60;;;28.10;98.30;;;;;;4987572;28;20022;-60
2022/08/13 11:57:38;;;;;;;3.70;1.85;;;28.40;96.60;;;;;;4985112;28;20030;-59
2022/08/13 12:00:05;;;;;;;3.15;1.70;;;28.30;96.90;;;;;;4984405;28;20038;-59
2022/08/13 12:02:31;;;;;;;1.83;1.45;;;28.30;96.10;;;;;;4999797;28;20116;-60
2022/08/13 12:04:57;;;;;;;4.40;1.45;;;28.40;97.90;;;;;;4980058;28;20460;-59
2022/08/13 12:07:23;;;;;;;2.92;1.50;;;28.50;95.00;;;;;;4983514;28;20040;-59
2022/08/13 12:09:49;;;;;;;3.55;1.40;;;28.40;93.40;;;;;;4983519;28;20105;-60
2022/08/13 12:12:15;;;;;;;3.13;1.50;;;28.20;96.30;;;;;;4981764;28;20438;-60
2022/08/13 12:14:40;;;;;;;1.58;1.20;;;28.30;98.80;;;;;;4991861;28;20187;-60
2022/08/13 12:17:06;;;;;;;2.72;1.52;;;28.30;96.50;;;;;;4984951;28;20037;-60
2022/08/13 12:19:32;;;;;;;3.45;1.40;;;28.40;98.00;;;;;;4984370;28;20049;-60
2022/08/13 12:21:59;;;;;;;3.38;1.40;;;28.50;97.30;;;;;;4981647;28;20022;-59
2022/08/13 12:24:25;;;;;;;2.65;1.30;;;28.80;94.60;;;;;;4981929;28;20034;-60
2022/08/13 12:26:51;;;;;;;1.63;1.30;;;28.80;93.90;;;;;;4980668;28;20022;-59
2022/08/13 12:29:16;;;;;;;1.88;1.30;;;28.90;93.00;;;;;;4981944;28;20063;-59
2022/08/13 12:31:42;;;;;;;2.38;1.33;;;29.00;92.60;;;;;;4981633;28;20037;-60
2022/08/13 12:34:07;;;;;;;1.80;1.30;;;28.80;91.80;;;;;;4982750;28;20034;-60
2022/08/13 12:36:33;;;;;;;3.17;1.30;;;28.90;94.10;;;;;;4983986;28;20030;-59
2022/08/13 12:38:58;;;;;;;2.10;1.45;;;28.80;91.40;;;;;;4980169;28;20105;-60
2022/08/13 12:41:24;;;;;;;8.65;1.52;;;29.00;91.70;;;;;;4980588;28;20517;-60
2022/08/13 12:43:49;;;;;;;3.67;1.45;;;29.00;94.20;;;;;;4977433;28;20068;-60
2022/08/13 12:46:15;;;;;;;4.13;1.67;;;28.80;92.10;;;;;;4981699;28;20089;-60
2022/08/13 12:48:41;;;;;;;3.70;1.50;;;29.10;92.70;;;;;;4979301;28;20030;-59
2022/08/13 12:51:07;;;;;;;1.63;1.17;;;29.20;90.20;;;;;;4982743;28;20037;-59
2022/08/13 12:53:33;;;;;;;2.55;1.40;;;29.00;91.10;;;;;;4981115;28;20056;-60
2022/08/13 12:55:59;;;;;;;4.38;2.40;;;29.10;91.90;;;;;;4980340;28;20618;-60
2022/08/13 12:58:26;;;;;;;4.05;1.67;;;29.30;88.90;;;;;;4982682;28;20180;-61
2022/08/13 13:00:54;;;;;;;5.22;1.85;;;29.20;90.00;;;;;;4980629;28;20057;-61
2022/08/13 13:03:21;;;;;;;6.35;1.80;;;29.20;91.80;;;;;;4984913;28;20470;-60
2022/08/13 13:05:48;;;;;;;4.07;1.70;;;29.00;91.70;;;;;;4983482;28;20032;-61
2022/08/13 13:08:25;;;;;;;5.35;1.73;;;28.40;91.70;;;;;;4985960;28;20030;-60
2022/08/13 13:10:52;;;;;;;2.85;1.33;;;28.90;90.10;;;;;;4986568;28;20106;-60
2022/08/13 13:13:23;;;;;;;3.28;1.60;;;29.00;91.90;;;;;;4985654;28;20030;-60
2022/08/13 13:15:49;;;;;;;2.38;1.60;;;29.10;92.40;;;;;;4986485;28;20489;-61
2022/08/13 13:18:25;;;;;;;2.10;1.65;;;29.00;91.90;;;;;;4988425;28;20467;-60
2022/08/13 13:20:52;;;;;;;7.78;1.88;;;28.90;91.40;;;;;;4993340;28;20030;-60
2022/08/13 13:23:21;;;;;;;2.10;1.55;;;28.90;91.80;;;;;;4985318;28;20041;-60
2022/08/13 13:25:48;;;;;;;3.25;1.85;;;28.80;90.40;;;;;;4984137;28;20385;-60
2022/08/13 13:28:16;;;;;;;1.73;1.58;;;28.80;87.80;;;;;;4987034;28;20060;-61
2022/08/13 13:30:43;;;;;;;2.72;1.42;;;28.70;89.10;;;;;;4985442;28;20030;-60
2022/08/13 13:33:09;;;;;;;3.35;1.30;;;28.80;86.70;;;;;;4990531;28;20061;-60